CLS Airport (Chehalis-Centralia) Information

FAA: CLS - ICAO: KCLS

CLS Airport Location

State Washington
County Lewis
City Chehalis
CLS Airport is 1 mile west of Chehalis, WA.
Latitude 46-40-37.3000N
Longitude 122-58-57.9000W
Elevation 177ft

KCLS Airport METARs

METAR KCLS 201835Z AUTO VRB04G11KT 10SM CLR 24/16 A2999 RMK AO2
Altimeter 29.99"
Temperature 24.0°C (75.2°F)
Wind 0° at 4KT with gusts to 11KT
Clouds Skies are clear.
Visibility 10.0mi
Time observed: 2021-06-20T18:35:00Z

CLS Airport Details

Status Operational
Activation September 1937
Ownership Public
Usage Public
Chart SEATTLE
ATC on-site No
Beacon schedule sunset-sunrise
Beacon color clear green

CLS Airport Contacts

Owner CITY OF CHEHALIS
Owner address P.O. BOX 1344, CHEHALIS, WA 98532
Owner phone 360-748-1230
Manager JERRY B. MARTIN
Manager address 2410 NATURES PATH WAY, BLAINE, WA 98230
Manager phone 360-332-9200

CLS Airport (Chehalis-Centralia) Radio Frequencies

CLS (Airport) Radio Frequencies

UNICOM 122.8
Common traffic advisory frequency (CTAF) 122.8